Time;durP1;ratioP1;P1;durP2;ratioP2;P2;SDS_P1;SDS_P2;PMS_P1;PMS_P2;Temp;Humidity;BMP_temperature;BMP_pressure;BME280_temperature;BME280_humidity;BME280_pressure;Samples;Min_cycle;Max_cycle;Signal;HPM_P1;HPM_P2
2021/12/08 00:01:25;;;;;;;1.15;0.40;;;;;;;3.85;72.78;96635.38;4964663;28;20055;-53
2021/12/08 00:03:52;;;;;;;0.98;0.50;;;;;;;3.76;72.93;96640.78;4962368;28;20090;-53
2021/12/08 00:06:19;;;;;;;3.05;0.47;;;;;;;3.74;74.15;96640.00;4961187;28;20051;-53
2021/12/08 00:09:00;;;;;;;4.82;0.43;;;;;;;3.70;73.55;96638.41;4964834;28;20588;-52
2021/12/08 00:14:14;;;;;;;2.83;0.80;;;;;;;3.64;73.93;96646.28;4959375;28;20055;-52
2021/12/08 00:16:41;;;;;;;2.65;0.73;;;;;;;3.60;74.37;96646.38;4959134;28;20582;-52
2021/12/08 00:19:08;;;;;;;3.67;1.00;;;;;;;3.62;73.94;96632.69;4960333;28;20047;-49
2021/12/08 00:21:35;;;;;;;1.65;0.68;;;;;;;3.59;74.54;96649.78;4962785;28;20105;-51
2021/12/08 00:24:02;;;;;;;3.10;0.75;;;;;;;3.60;74.53;96651.50;4963576;28;20047;-53
2021/12/08 00:26:29;;;;;;;3.58;0.57;;;;;;;3.57;74.15;96645.59;4962241;28;20046;-54
2021/12/08 00:28:56;;;;;;;3.25;0.50;;;;;;;3.57;74.45;96651.56;4962766;28;20120;-53
2021/12/08 00:31:22;;;;;;;2.80;0.57;;;;;;;3.58;73.96;96647.31;4965826;28;20101;-51
2021/12/08 00:33:49;;;;;;;5.55;0.75;;;;;;;3.57;74.13;96641.34;4962568;28;20501;-53
2021/12/08 00:36:18;;;;;;;4.13;0.50;;;;;;;3.55;74.06;96648.22;4963606;28;20475;-53
2021/12/08 00:38:44;;;;;;;2.40;1.02;;;;;;;3.52;75.12;96648.31;4960351;28;20062;-50
2021/12/08 00:41:11;;;;;;;2.70;0.88;;;;;;;3.50;75.13;96647.50;4963517;28;20113;-53
2021/12/08 00:43:38;;;;;;;10.18;0.88;;;;;;;3.52;75.10;96642.34;4961685;28;20114;-51
2021/12/08 00:46:05;;;;;;;2.85;0.73;;;;;;;3.51;75.07;96640.69;4958509;28;20109;-52
2021/12/08 00:48:31;;;;;;;1.00;0.70;;;;;;;3.52;74.86;96650.03;4961067;28;20043;-55
2021/12/08 00:50:58;;;;;;;5.57;1.63;;;;;;;3.49;74.50;96648.41;4963853;28;20084;-53
2021/12/08 00:53:25;;;;;;;2.15;1.90;;;;;;;3.50;75.24;96655.19;4963756;28;20145;-53
2021/12/08 00:55:51;;;;;;;11.75;1.20;;;;;;;3.50;74.55;96644.97;4962642;28;20047;-50
2021/12/08 00:58:18;;;;;;;9.55;1.33;;;;;;;3.48;74.95;96651.84;4967444;28;20112;-50
2021/12/08 01:00:48;;;;;;;7.85;1.20;;;;;;;3.49;75.82;96653.53;4967263;28;20046;-53
2021/12/08 01:03:16;;;;;;;;;;;;;;;3.46;75.42;96648.50;4964279;28;20070;-51
2021/12/08 01:05:47;;;;;;;4.30;0.90;;;;;;;3.52;75.23;96653.44;4969215;28;19922;-53
2021/12/08 01:08:15;;;;;;;2.10;0.35;;;;;;;3.48;75.06;96649.28;4961962;28;21618;-56
2021/12/08 01:10:44;;;;;;;3.28;0.50;;;;;;;3.46;74.90;96643.38;4967269;28;20059;-51
2021/12/08 01:13:14;;;;;;;3.65;0.63;;;;;;;3.48;75.31;96649.28;4964817;28;20054;-51
2021/12/08 01:15:46;;;;;;;1.23;0.50;;;;;;;3.47;75.38;96635.66;4963944;28;20085;-54
2021/12/08 01:18:15;;;;;;;4.10;1.13;;;;;;;3.49;75.37;96640.72;4962847;28;20046;-53
2021/12/08 01:20:43;;;;;;;2.55;0.70;;;;;;;3.44;75.70;96642.56;4965262;28;20466;-54
2021/12/08 01:23:14;;;;;;;4.90;1.15;;;;;;;3.44;76.38;96629.78;4969358;28;20045;-52
2021/12/08 01:25:42;;;;;;;3.15;0.68;;;;;;;3.46;75.69;96635.69;4981139;28;20125;-51
2021/12/08 01:28:10;;;;;;;6.47;1.10;;;;;;;3.48;76.28;96641.63;4962372;28;20038;-50
2021/12/08 01:30:40;;;;;;;1.58;0.43;;;;;;;3.49;76.07;96642.44;4967118;28;20541;-52
2021/12/08 01:33:07;;;;;;;3.95;0.95;;;;;;;3.50;76.25;96644.97;4967006;28;20047;-53
2021/12/08 01:35:34;;;;;;;9.02;0.60;;;;;;;3.52;75.88;96640.66;4968198;28;20054;-53
2021/12/08 01:38:00;;;;;;;6.15;1.00;;;;;;;3.57;76.36;96635.38;4968114;28;20074;-49
2021/12/08 01:40:27;;;;;;;3.30;1.48;;;;;;;3.58;75.87;96653.25;4968296;28;20106;-54
2021/12/08 01:42:57;;;;;;;2.80;0.47;;;;;;;3.58;75.96;96639.63;4967755;28;20443;-53
2021/12/08 01:48:18;;;;;;;7.05;1.30;;;;;;;3.56;75.71;96639.66;4976454;28;20102;-51
2021/12/08 01:50:48;;;;;;;7.65;1.40;;;;;;;3.57;75.85;96638.78;4964374;28;20051;-51
2021/12/08 01:53:15;;;;;;;4.85;0.63;;;;;;;3.56;76.01;96649.06;4964406;28;20047;-50
2021/12/08 01:55:43;;;;;;;6.93;1.17;;;;;;;3.59;76.40;96644.69;4966092;28;20046;-51
2021/12/08 01:58:11;;;;;;;7.47;1.08;;;;;;;3.62;75.80;96648.03;4962671;28;20046;-49
2021/12/08 02:00:42;;;;;;;4.55;1.30;;;;;;;3.69;75.37;96654.66;4966044;28;20046;-55
2021/12/08 02:03:10;;;;;;;4.72;1.20;;;;;;;3.69;75.37;96658.03;4964565;28;20046;-53
2021/12/08 02:05:37;;;;;;;3.05;0.55;;;;;;;3.72;75.29;96655.38;4960498;28;20050;-52
2021/12/08 02:08:06;;;;;;;7.85;1.25;;;;;;;3.79;75.42;96653.50;4958525;28;20148;-52
2021/12/08 02:10:37;;;;;;;10.75;1.58;;;;;;;3.81;75.48;96646.59;4961590;28;20078;-51
2021/12/08 02:13:04;;;;;;;7.97;1.38;;;;;;;3.81;75.76;96649.16;4967405;28;20054;-51
2021/12/08 02:15:32;;;;;;;4.38;1.27;;;;;;;3.86;74.97;96661.84;4961433;28;20482;-49
2021/12/08 02:17:59;;;;;;;9.48;1.05;;;;;;;3.90;75.69;96652.31;4963790;28;20065;-49
2021/12/08 02:20:28;;;;;;;7.53;1.33;;;;;;;3.89;74.85;96660.91;4961182;28;20513;-50
2021/12/08 02:22:55;;;;;;;2.90;1.15;;;;;;;3.93;75.24;96658.19;4967953;28;20055;-51
2021/12/08 02:25:24;;;;;;;8.93;1.67;;;;;;;3.94;75.18;96657.31;4963341;28;20510;-50
2021/12/08 02:27:53;;;;;;;6.57;1.02;;;;;;;3.98;74.50;96655.47;4966016;28;20059;-53
2021/12/08 02:30:27;;;;;;;8.05;1.65;;;;;;;4.01;74.96;96650.28;4961030;28;20108;-48
2021/12/08 02:47:05;;;;;;;5.55;0.95;;;;;;;3.90;74.89;96668.53;4960515;28;20055;-51
2021/12/08 02:49:32;;;;;;;5.40;1.27;;;;;;;3.91;74.90;96666.78;4960963;28;20782;-53
2021/12/08 02:52:00;;;;;;;9.20;1.40;;;;;;;3.87;75.50;96658.38;4963900;28;21749;-54
2021/12/08 02:54:33;;;;;;;12.70;1.60;;;;;;;3.84;75.92;96664.44;4961550;28;20051;-50
2021/12/08 02:57:00;;;;;;;5.88;1.20;;;;;;;3.86;75.42;96657.53;4965895;28;20058;-49
2021/12/08 02:59:27;;;;;;;9.00;1.13;;;;;;;3.89;75.41;96660.91;4967588;28;20109;-51
2021/12/08 03:01:53;;;;;;;3.65;0.82;;;;;;;3.89;74.86;96660.91;4964133;28;20560;-52
2021/12/08 03:04:21;;;;;;;11.20;1.50;;;;;;;3.89;74.67;96660.91;4964147;28;20058;-53
2021/12/08 03:06:47;;;;;;;3.50;0.88;;;;;;;3.92;75.10;96656.50;4961845;28;20094;-50
2021/12/08 03:09:14;;;;;;;7.30;1.20;;;;;;;3.95;74.71;96663.28;4965246;28;20047;-50
2021/12/08 03:11:41;;;;;;;9.80;1.55;;;;;;;3.97;74.82;96661.50;4964603;28;21027;-52
2021/12/08 03:14:11;;;;;;;1.75;0.88;;;;;;;3.99;74.57;96657.19;4962109;28;20113;-50
2021/12/08 03:16:41;;;;;;;5.15;0.63;;;;;;;4.03;74.36;96647.66;4963783;28;20101;-49
2021/12/08 03:19:08;;;;;;;7.47;0.95;;;;;;;4.04;73.90;96660.44;4961551;28;20600;-52
2021/12/08 03:21:35;;;;;;;1.52;0.70;;;;;;;4.03;73.75;96658.75;4965781;28;20750;-51
2021/12/08 03:24:13;;;;;;;6.60;1.05;;;;;;;4.03;73.43;96653.63;4963530;28;20050;-53
2021/12/08 03:26:50;;;;;;;5.10;0.80;;;;;;;4.06;73.00;96650.97;4966368;28;20431;-49
2021/12/08 03:29:25;;;;;;;5.22;1.38;;;;;;;4.06;73.68;96648.41;4963456;28;20047;-53
2021/12/08 03:31:55;;;;;;;5.75;1.35;;;;;;;4.07;73.43;96634.72;4964678;28;20699;-50
2021/12/08 03:34:24;;;;;;;9.93;1.25;;;;;;;4.08;72.67;96659.44;4963121;28;20102;-49
2021/12/08 03:36:52;;;;;;;5.30;0.70;;;;;;;4.09;72.78;96653.44;4962785;28;20058;-48
2021/12/08 03:39:18;;;;;;;4.60;1.05;;;;;;;4.11;73.02;96667.03;4962871;28;20090;-47
2021/12/08 03:41:46;;;;;;;3.92;1.52;;;;;;;4.12;72.80;96667.84;4964693;28;20042;-49
2021/12/08 03:44:13;;;;;;;4.82;0.45;;;;;;;4.10;72.60;96670.50;4962804;28;20043;-52
2021/12/08 03:46:42;;;;;;;5.38;0.52;;;;;;;4.13;72.73;96673.81;4962685;28;20098;-49
2021/12/08 03:49:14;;;;;;;4.03;1.00;;;;;;;4.14;72.21;96675.50;4959661;28;20054;-50
2021/12/08 03:51:41;;;;;;;9.00;1.10;;;;;;;4.15;72.82;96682.31;4959346;28;20613;-49
2021/12/08 03:54:08;;;;;;;4.00;1.98;;;;;;;4.19;72.26;96699.25;4962808;28;20046;-48
2021/12/08 03:56:35;;;;;;;3.92;1.35;;;;;;;4.17;71.84;96701.03;4963051;28;20054;-49
2021/12/08 03:59:03;;;;;;;2.22;0.70;;;;;;;4.21;72.11;96692.34;4961163;28;21164;-51
2021/12/08 04:01:31;;;;;;;5.00;0.80;;;;;;;4.18;71.78;96689.88;4963891;28;20448;-47
2021/12/08 04:04:03;;;;;;;1.38;0.52;;;;;;;4.20;71.83;96695.81;4963473;28;20054;-53
2021/12/08 04:06:37;;;;;;;0.82;0.52;;;;;;;4.18;71.50;96702.69;4958778;28;20054;-53
2021/12/08 04:09:06;;;;;;;4.25;1.05;;;;;;;4.17;71.83;96708.72;4965121;28;20495;-50
2021/12/08 04:11:33;;;;;;;4.30;0.95;;;;;;;4.17;71.74;96711.25;4964475;28;20105;-54
2021/12/08 04:14:05;;;;;;;8.45;1.20;;;;;;;4.18;71.31;96736.00;4964212;28;20055;-50
2021/12/08 04:16:39;;;;;;;3.60;0.57;;;;;;;4.19;71.19;96735.13;4964280;28;20094;-54
2021/12/08 04:19:09;;;;;;;3.45;1.15;;;;;;;4.20;71.85;96736.78;4961177;28;20057;-50
2021/12/08 04:21:37;;;;;;;2.75;0.57;;;;;;;4.21;71.55;96734.19;4962243;28;20075;-53
2021/12/08 04:24:05;;;;;;;6.20;1.25;;;;;;;4.23;71.82;96741.84;4964984;28;20098;-50
2021/12/08 04:26:37;;;;;;;4.47;0.63;;;;;;;4.24;71.34;96733.25;4963609;28;20047;-52
2021/12/08 04:29:07;;;;;;;4.78;0.85;;;;;;;4.23;71.44;96737.53;4962967;28;20043;-54
2021/12/08 04:31:36;;;;;;;5.30;0.30;;;;;;;4.24;71.49;96743.50;4965033;28;20097;-50
2021/12/08 04:34:06;;;;;;;2.15;0.63;;;;;;;4.24;71.60;96744.34;4967485;28;20054;-50
2021/12/08 04:36:42;;;;;;;10.32;1.13;;;;;;;4.24;71.26;96743.50;4968046;28;20047;-50
2021/12/08 04:39:16;;;;;;;7.30;2.17;;;;;;;4.24;71.33;96735.81;4966119;28;20097;-52
2021/12/08 04:41:48;;;;;;;5.40;0.63;;;;;;;4.25;71.64;96740.03;4964978;28;20422;-53
2021/12/08 04:44:28;;;;;;;5.80;0.63;;;;;;;4.27;71.39;96737.44;4967887;28;20051;-53
2021/12/08 04:47:22;;;;;;;6.22;0.80;;;;;;;4.24;71.49;96753.75;4964008;28;20054;-51
2021/12/08 04:50:18;;;;;;;8.77;0.98;;;;;;;4.28;71.97;96750.19;4977278;28;20108;-54
2021/12/08 04:53:05;;;;;;;2.40;0.60;;;;;;;4.26;71.29;96744.31;4956310;28;20098;-53
2021/12/08 05:01:22;;;;;;;4.70;0.68;;;;;;;4.31;69.72;96755.25;4951641;28;20133;-51
2021/12/08 05:04:31;;;;;;;10.13;0.82;;;;;;;4.33;70.27;96752.63;4963587;28;20168;-52
2021/12/08 05:06:59;;;;;;;4.85;0.68;;;;;;;4.34;70.57;96759.44;4952316;28;20109;-51
2021/12/08 05:09:31;;;;;;;5.65;0.77;;;;;;;4.34;70.60;96765.41;4969039;28;20066;-53
2021/12/08 05:12:04;;;;;;;5.93;1.23;;;;;;;4.37;70.21;96767.88;4965303;28;20054;-49
2021/12/08 05:14:46;;;;;;;1.35;0.40;;;;;;;4.36;70.09;96781.56;4965755;28;20050;-51
2021/12/08 05:17:19;;;;;;;1.20;0.70;;;;;;;4.36;70.20;96783.28;4963920;28;20058;-52
2021/12/08 05:19:49;;;;;;;4.22;0.82;;;;;;;4.39;69.85;96772.94;4978503;28;20607;-54
2021/12/08 05:22:19;;;;;;;;;;;;;;;4.35;69.61;96777.31;4966585;28;20545;-54
2021/12/08 05:24:49;;;;;;;5.00;0.65;;;;;;;4.40;69.33;96766.09;4965809;28;19984;-53
2021/12/08 05:27:22;;;;;;;4.53;0.68;;;;;;;4.40;69.21;96763.53;4962477;28;20050;-51
2021/12/08 05:29:54;;;;;;;4.18;0.43;;;;;;;4.39;69.39;96751.59;4968415;28;20113;-53
2021/12/08 05:32:21;;;;;;;4.38;0.85;;;;;;;4.40;69.32;96760.97;4964932;28;20042;-47
2021/12/08 05:34:48;;;;;;;4.00;1.13;;;;;;;4.42;69.49;96756.66;4967103;28;20054;-51
2021/12/08 05:37:17;;;;;;;10.55;1.52;;;;;;;4.41;69.56;96765.19;4966263;28;20047;-49
2021/12/08 05:39:44;;;;;;;2.63;0.70;;;;;;;4.44;70.10;96770.22;4964688;28;20097;-54
2021/12/08 05:42:26;;;;;;;6.93;1.27;;;;;;;4.43;69.62;96758.31;4965581;28;20054;-53
2021/12/08 05:44:52;;;;;;;7.68;1.13;;;;;;;4.46;69.22;96753.09;4965546;28;20101;-49
2021/12/08 05:47:23;;;;;;;2.10;0.60;;;;;;;4.45;69.59;96774.47;4963349;28;20051;-51
2021/12/08 05:49:51;;;;;;;3.95;0.95;;;;;;;4.45;69.07;96761.66;4969023;28;20054;-54
2021/12/08 05:52:17;;;;;;;6.03;1.23;;;;;;;4.44;69.18;96759.97;4967673;28;20058;-52
2021/12/08 05:54:46;;;;;;;4.38;1.13;;;;;;;4.43;69.37;96779.63;4965742;28;20042;-53
2021/12/08 05:57:23;;;;;;;3.35;1.02;;;;;;;4.44;69.09;96770.22;4967096;28;20058;-51
2021/12/08 05:59:52;;;;;;;7.70;0.90;;;;;;;4.45;69.11;96774.47;4965283;28;20487;-52
2021/12/08 06:02:24;;;;;;;3.53;0.45;;;;;;;4.44;69.12;96768.53;4967413;28;20047;-52
2021/12/08 06:04:51;;;;;;;3.50;0.47;;;;;;;4.43;68.49;96766.00;4967046;28;20054;-51
2021/12/08 06:07:21;;;;;;;9.13;0.93;;;;;;;4.41;69.26;96770.31;4967263;28;20422;-48
2021/12/08 06:09:51;;;;;;;2.95;0.60;;;;;;;4.40;68.50;96768.66;4964779;28;20043;-50
2021/12/08 06:12:18;;;;;;;6.68;1.38;;;;;;;4.42;68.61;96777.97;4966853;28;20573;-50
2021/12/08 06:14:46;;;;;;;1.85;0.75;;;;;;;4.44;68.38;96762.53;4963844;28;20495;-53
2021/12/08 06:17:18;;;;;;;5.47;0.75;;;;;;;4.43;68.20;96769.38;4964222;28;20078;-47
2021/12/08 06:19:47;;;;;;;4.57;0.90;;;;;;;4.43;68.84;96751.44;4965603;28;20109;-47
2021/12/08 06:22:16;;;;;;;3.30;1.35;;;;;;;4.40;68.81;96761.81;4964501;28;20051;-49
2021/12/08 06:24:44;;;;;;;7.70;0.80;;;;;;;4.39;68.68;96778.06;4967166;28;20183;-48
2021/12/08 06:27:11;;;;;;;2.42;1.45;;;;;;;4.35;67.77;96764.50;4966206;28;20109;-51
2021/12/08 06:29:39;;;;;;;4.30;1.13;;;;;;;4.37;68.01;96774.72;4965688;28;20081;-53
2021/12/08 06:32:08;;;;;;;3.35;0.77;;;;;;;4.39;67.98;96766.97;4967976;28;20062;-50
2021/12/08 06:34:37;;;;;;;5.43;1.15;;;;;;;4.37;67.49;96767.88;4965832;28;20105;-50
2021/12/08 06:37:12;;;;;;;7.45;1.38;;;;;;;4.40;67.56;96773.78;4967246;28;20416;-54
2021/12/08 06:39:44;;;;;;;7.35;0.63;;;;;;;4.43;67.72;96768.56;4965884;28;20050;-52
2021/12/08 06:42:15;;;;;;;9.07;1.10;;;;;;;4.41;67.32;96758.34;4968513;28;20047;-49
2021/12/08 06:44:47;;;;;;;3.75;1.67;;;;;;;4.44;67.37;96749.72;4948111;28;20054;-49
2021/12/08 06:47:19;;;;;;;4.82;1.05;;;;;;;4.47;67.27;96765.88;4966413;28;20050;-50
2021/12/08 06:49:48;;;;;;;6.07;0.98;;;;;;;4.45;68.08;96751.41;4969494;28;20043;-55
2021/12/08 06:52:20;;;;;;;7.57;1.50;;;;;;;4.45;66.70;96757.38;4966964;28;21046;-48
2021/12/08 06:54:57;;;;;;;10.85;1.25;;;;;;;4.49;67.39;96763.22;4968781;28;20114;-53
2021/12/08 06:57:30;;;;;;;5.07;1.45;;;;;;;4.48;68.21;96766.69;4964770;28;20829;-50
2021/12/08 07:00:04;;;;;;;3.05;0.43;;;;;;;4.47;67.76;96782.97;4966384;28;20106;-49
2021/12/08 07:02:58;;;;;;;4.03;0.85;;;;;;;4.46;67.97;96771.03;4967636;28;20040;-52
2021/12/08 07:05:31;;;;;;;7.18;0.90;;;;;;;4.42;69.49;96775.41;4952117;28;20418;-50
2021/12/08 07:08:04;;;;;;;3.45;0.85;;;;;;;4.36;70.24;96786.69;4969798;28;20069;-48
2021/12/08 07:10:36;;;;;;;4.18;0.77;;;;;;;4.34;70.52;96785.91;4968257;28;20117;-50
2021/12/08 07:13:07;;;;;;;5.07;0.77;;;;;;;4.30;70.81;96798.84;4962995;28;20047;-50
2021/12/08 07:15:45;;;;;;;4.22;0.75;;;;;;;4.27;71.02;96799.78;4966593;28;20058;-51
2021/12/08 07:18:16;;;;;;;4.50;0.63;;;;;;;4.21;71.69;96820.44;4966079;28;20462;-52
2021/12/08 07:20:51;;;;;;;5.00;1.25;;;;;;;4.18;72.54;96810.28;4968094;28;20069;-51
2021/12/08 07:23:28;;;;;;;2.70;0.55;;;;;;;4.10;73.04;96839.53;4963438;28;20085;-52
2021/12/08 07:25:57;;;;;;;3.13;1.02;;;;;;;4.02;73.10;96832.94;4964369;28;20507;-52
2021/12/08 07:28:26;;;;;;;3.30;0.52;;;;;;;3.98;73.43;96825.34;4963521;28;20141;-51
2021/12/08 07:30:57;;;;;;;1.20;0.30;;;;;;;3.94;74.11;96833.16;4960255;28;20058;-52
2021/12/08 07:33:26;;;;;;;4.40;0.82;;;;;;;3.93;74.25;96857.09;4962518;28;20046;-49
2021/12/08 07:35:56;;;;;;;4.93;0.95;;;;;;;3.86;74.20;96831.63;4963643;28;20054;-52
2021/12/08 07:38:27;;;;;;;4.38;1.00;;;;;;;3.85;74.53;96845.31;4964762;28;20042;-49
2021/12/08 07:41:06;;;;;;;2.28;0.35;;;;;;;3.80;75.24;96841.22;4962348;28;20062;-51
2021/12/08 07:43:35;;;;;;;7.55;0.93;;;;;;;3.76;75.47;96845.59;4965527;28;20047;-52
2021/12/08 07:46:10;;;;;;;5.43;1.13;;;;;;;3.73;75.54;96849.06;4962829;28;20073;-50
2021/12/08 07:48:45;;;;;;;5.15;0.80;;;;;;;3.70;75.95;96846.59;4957857;28;20081;-52
2021/12/08 07:51:18;;;;;;;4.68;0.60;;;;;;;3.71;76.53;96861.06;4964195;28;20055;-54
2021/12/08 07:53:46;;;;;;;10.85;1.05;;;;;;;3.68;76.19;96862.88;4959109;28;20047;-53
2021/12/08 07:56:16;;;;;;;9.07;1.35;;;;;;;3.67;76.69;96856.06;4964805;28;20121;-49
2021/12/08 07:58:46;;;;;;;4.30;0.60;;;;;;;3.68;75.78;96868.00;4959569;28;20043;-54
2021/12/08 08:01:17;;;;;;;4.38;0.88;;;;;;;3.69;76.13;96874.78;4945687;28;20484;-54
2021/12/08 08:03:47;;;;;;;3.30;1.65;;;;;;;3.69;76.81;96890.16;4962230;28;20046;-53
2021/12/08 08:06:19;;;;;;;9.60;0.80;;;;;;;3.68;76.43;96881.63;4967803;28;20051;-51
2021/12/08 08:08:46;;;;;;;3.40;0.52;;;;;;;3.67;76.34;96892.75;4970312;28;20089;-53
2021/12/08 08:11:18;;;;;;;5.57;0.70;;;;;;;3.63;77.11;96900.53;4969167;28;20062;-53
2021/12/08 08:13:45;;;;;;;3.25;1.10;;;;;;;3.63;76.89;96901.38;4968542;28;20112;-52
2021/12/08 08:16:17;;;;;;;3.47;0.85;;;;;;;3.62;76.98;96906.53;4970925;28;20102;-54
2021/12/08 08:18:54;;;;;;;10.02;0.73;;;;;;;3.59;77.01;96915.97;4970293;28;20467;-51
2021/12/08 08:21:26;;;;;;;2.85;1.08;;;;;;;3.57;77.01;96917.72;4969241;28;20042;-51
2021/12/08 08:23:54;;;;;;;4.47;0.50;;;;;;;3.59;77.53;96928.75;4967476;28;20043;-52
2021/12/08 08:26:21;;;;;;;3.05;0.70;;;;;;;3.59;76.97;96915.97;4970243;28;20491;-52
2021/12/08 08:28:50;;;;;;;3.30;0.68;;;;;;;3.57;77.59;96922.84;4971467;28;20047;-51
2021/12/08 08:31:23;;;;;;;3.30;0.63;;;;;;;3.60;77.29;96927.91;4970960;28;20533;-54
2021/12/08 08:33:50;;;;;;;2.63;0.90;;;;;;;3.62;77.25;96939.81;4970204;28;20065;-53
2021/12/08 08:36:20;;;;;;;2.58;0.80;;;;;;;3.62;78.03;96939.81;4970141;28;20109;-50
2021/12/08 08:38:54;;;;;;;1.05;0.75;;;;;;;3.63;77.16;96941.47;4963897;28;20462;-53
2021/12/08 08:41:27;;;;;;;1.45;0.60;;;;;;;3.67;77.53;96948.19;4969504;28;20058;-52
2021/12/08 08:43:57;;;;;;;1.73;0.32;;;;;;;3.69;76.80;96951.56;4967364;28;20046;-54
2021/12/08 08:46:28;;;;;;;1.38;0.70;;;;;;;3.68;77.08;96944.78;4970340;28;20047;-54
2021/12/08 08:48:59;;;;;;;0.60;0.43;;;;;;;3.67;77.17;96953.31;4970978;28;20395;-54
2021/12/08 08:51:35;;;;;;;0.88;0.57;;;;;;;3.70;77.20;96963.50;4968319;28;20410;-55
2021/12/08 08:54:09;;;;;;;2.13;0.40;;;;;;;3.72;77.16;96984.78;4969602;28;20054;-54
2021/12/08 08:56:41;;;;;;;1.02;0.28;;;;;;;3.72;77.06;96966.88;4969478;28;20050;-55
2021/12/08 08:59:14;;;;;;;1.65;0.50;;;;;;;3.72;76.79;96972.81;4968931;28;20047;-54
2021/12/08 09:01:45;;;;;;;1.60;0.40;;;;;;;3.73;77.45;96968.53;4971568;28;20047;-52
2021/12/08 09:04:21;;;;;;;0.80;0.20;;;;;;;3.76;77.37;96978.72;4968852;28;20046;-55
2021/12/08 09:06:51;;;;;;;4.53;0.40;;;;;;;3.79;76.82;96981.19;4968649;28;20054;-51
2021/12/08 09:09:22;;;;;;;0.98;0.77;;;;;;;3.82;76.89;96977.72;4966649;28;20051;-45
2021/12/08 09:11:57;;;;;;;0.73;0.60;;;;;;;3.80;77.10;96985.44;4969641;28;20059;-53
2021/12/08 09:14:28;;;;;;;1.98;0.10;;;;;;;3.85;76.62;96987.88;4969294;28;20058;-53
2021/12/08 09:17:06;;;;;;;1.60;0.45;;;;;;;3.84;76.69;96997.28;4963714;28;20050;-52
2021/12/08 09:19:42;;;;;;;2.45;0.63;;;;;;;3.90;76.90;97010.78;4969439;28;20068;-48
2021/12/08 09:22:33;;;;;;;6.82;1.13;;;;;;;3.90;76.37;97016.78;4968336;28;20043;-53
2021/12/08 09:25:14;;;;;;;6.28;2.47;;;;;;;3.93;76.72;97034.63;4964109;28;20054;-51
2021/12/08 09:27:46;;;;;;;4.45;1.88;;;;;;;3.95;76.53;97027.72;4970782;28;20050;-50
2021/12/08 09:30:22;;;;;;;4.82;1.55;;;;;;;3.99;76.58;97033.63;4969684;28;20050;-52
2021/12/08 09:32:54;;;;;;;9.93;2.25;;;;;;;4.04;76.25;97039.47;4969571;28;20395;-53
2021/12/08 09:35:25;;;;;;;5.53;1.20;;;;;;;4.05;76.38;97037.75;4967507;28;20054;-52
2021/12/08 09:38:01;;;;;;;4.43;1.15;;;;;;;4.05;76.17;97046.28;4968509;28;20475;-51
2021/12/08 09:40:33;;;;;;;0.85;0.43;;;;;;;4.08;75.81;97046.19;4970201;28;20122;-51
2021/12/08 09:43:05;;;;;;;6.80;1.70;;;;;;;4.10;76.07;97049.56;4967218;28;20060;-53
2021/12/08 09:45:37;;;;;;;2.10;0.47;;;;;;;4.11;75.55;97051.25;4968569;28;20054;-49
2021/12/08 09:48:07;;;;;;;1.98;0.43;;;;;;;4.15;75.17;97038.38;4965437;28;20058;-51
2021/12/08 09:50:35;;;;;;;0.93;0.50;;;;;;;4.12;75.45;97057.19;4965388;28;20059;-51
2021/12/08 09:53:05;;;;;;;2.35;1.13;;;;;;;4.14;75.42;97054.59;4967845;28;20450;-53
2021/12/08 09:55:32;;;;;;;0.55;0.43;;;;;;;4.16;74.94;97068.22;4967918;28;20058;-52
2021/12/08 09:57:59;;;;;;;0.82;0.50;;;;;;;4.16;75.32;97074.19;4966775;28;20319;-49
2021/12/08 10:00:31;;;;;;;1.20;1.08;;;;;;;4.13;75.07;97081.09;4967973;28;20654;-51
2021/12/08 10:03:00;;;;;;;1.00;0.45;;;;;;;4.15;75.16;97061.44;4970132;28;20046;-51
2021/12/08 10:05:29;;;;;;;2.80;0.82;;;;;;;4.13;75.24;97081.09;4964255;28;20708;-52
2021/12/08 10:07:58;;;;;;;1.10;0.65;;;;;;;4.13;74.55;97071.72;4967349;28;20105;-52
2021/12/08 10:10:26;;;;;;;1.50;0.80;;;;;;;4.14;74.98;97080.22;4970431;28;20047;-53
2021/12/08 10:12:53;;;;;;;2.95;1.05;;;;;;;4.16;75.08;97078.47;4967761;28;20042;-53
2021/12/08 10:15:22;;;;;;;1.85;0.93;;;;;;;4.21;74.54;97089.44;4969205;28;20387;-52
2021/12/08 10:17:49;;;;;;;2.95;0.68;;;;;;;4.24;74.53;97102.19;4966614;28;20471;-53
2021/12/08 10:20:22;;;;;;;2.25;0.80;;;;;;;4.24;74.41;97102.19;4963076;28;20043;-48
2021/12/08 10:23:10;;;;;;;4.07;1.52;;;;;;;4.24;74.83;97117.56;4966040;28;20098;-50
2021/12/08 10:25:57;;;;;;;4.70;2.05;;;;;;;4.27;74.62;97127.72;4965779;28;20050;-52
2021/12/08 10:28:35;;;;;;;5.80;2.17;;;;;;;4.28;74.59;97126.84;4968376;28;20051;-50
2021/12/08 10:31:07;;;;;;;3.75;1.65;;;;;;;4.35;74.31;97136.06;4965780;28;20097;-51
2021/12/08 10:34:01;;;;;;;5.00;1.65;;;;;;;4.36;74.58;97148.00;4966672;28;20478;-50
2021/12/08 10:36:42;;;;;;;3.17;1.45;;;;;;;4.37;74.48;97154.81;4968415;28;20051;-51
2021/12/08 10:39:18;;;;;;;4.32;1.77;;;;;;;4.35;73.92;97160.84;4967437;28;20042;-52
2021/12/08 10:42:06;;;;;;;2.58;1.55;;;;;;;4.32;74.89;97146.38;4967959;28;20387;-49
2021/12/08 10:44:49;;;;;;;7.25;3.40;;;;;;;4.27;74.49;97153.34;4960423;28;20463;-53
2021/12/08 10:47:46;;;;;;;6.57;3.60;;;;;;;4.27;74.29;97153.34;4965220;28;20050;-48
2021/12/08 10:56:34;;;;;;;4.97;3.08;;;;;;;4.21;73.96;97163.72;4962955;28;20466;-50
2021/12/08 10:59:00;;;;;;;10.45;5.07;;;;;;;4.23;74.56;97172.25;4962989;28;20047;-50
2021/12/08 11:01:27;;;;;;;9.80;5.50;;;;;;;4.25;74.21;97180.72;4967675;28;20046;-50
2021/12/08 11:04:01;;;;;;;6.03;3.63;;;;;;;4.30;73.95;97181.47;4965585;28;20138;-49
2021/12/08 11:06:31;;;;;;;12.57;3.85;;;;;;;4.35;74.37;97187.31;4968085;28;20474;-49
2021/12/08 11:08:59;;;;;;;8.38;4.60;;;;;;;4.35;74.79;97184.75;4965347;28;20133;-53
2021/12/08 11:11:32;;;;;;;8.48;4.45;;;;;;;4.39;73.95;97197.50;4964522;28;20059;-54
2021/12/08 11:14:02;;;;;;;13.40;5.13;;;;;;;4.37;73.81;97200.94;4965728;28;20185;-53
2021/12/08 11:16:39;;;;;;;11.02;5.03;;;;;;;4.35;73.82;97205.25;4966950;28;20058;-52
2021/12/08 11:19:10;;;;;;;7.65;3.85;;;;;;;4.37;73.65;97200.94;4965258;28;20050;-52
2021/12/08 11:21:39;;;;;;;;;;;;;;;4.33;74.08;97209.56;4964820;28;20039;-48
2021/12/08 11:24:23;;;;;;;8.50;4.28;;;;;;;4.43;73.49;97217.88;4968010;28;19930;-50
2021/12/08 11:26:51;;;;;;;7.38;3.95;;;;;;;4.48;74.08;97218.63;4964348;28;20737;-50
2021/12/08 11:29:22;;;;;;;9.52;5.03;;;;;;;4.55;74.05;97234.69;4964972;28;20042;-51
2021/12/08 11:31:52;;;;;;;9.20;5.05;;;;;;;4.60;73.61;97222.59;4965558;28;20569;-51
2021/12/08 11:34:23;;;;;;;9.32;4.05;;;;;;;4.67;73.28;97237.84;4965173;28;20047;-50
2021/12/08 11:36:53;;;;;;;7.30;3.15;;;;;;;4.77;73.19;97254.72;4968277;28;20059;-50
2021/12/08 11:39:26;;;;;;;9.02;4.10;;;;;;;4.83;72.54;97254.53;4966927;28;20054;-52
2021/12/08 11:41:59;;;;;;;10.77;4.85;;;;;;;4.93;73.50;97264.59;4965048;28;20111;-52
2021/12/08 11:44:29;;;;;;;9.50;4.38;;;;;;;4.98;72.78;97255.03;4963563;28;20454;-50
2021/12/08 11:47:05;;;;;;;14.52;4.30;;;;;;;5.06;73.51;97260.81;4965896;28;20133;-50
2021/12/08 11:49:33;;;;;;;10.20;3.55;;;;;;;5.07;72.09;97267.63;4966890;28;20049;-53
2021/12/08 11:52:06;;;;;;;12.60;4.20;;;;;;;5.09;72.24;97277.84;4965755;28;20121;-50
2021/12/08 11:54:38;;;;;;;11.30;4.55;;;;;;;5.07;72.00;97272.75;4965135;28;20047;-51
2021/12/08 11:57:10;;;;;;;6.82;3.13;;;;;;;5.05;72.96;97282.22;4965308;28;20055;-51
2021/12/08 11:59:59;;;;;;;15.00;5.20;;;;;;;5.06;72.70;97276.22;4965716;28;20054;-51
2021/12/08 12:02:32;;;;;;;21.45;6.43;;;;;;;5.08;72.81;97282.16;4968187;28;20046;-51
2021/12/08 12:04:59;;;;;;;17.73;5.82;;;;;;;5.10;72.55;97288.09;4963338;28;20054;-54
2021/12/08 12:07:26;;;;;;;13.93;4.43;;;;;;;5.10;72.83;97303.47;4968293;28;20061;-50
2021/12/08 12:09:53;;;;;;;15.07;6.00;;;;;;;5.12;72.91;97306.88;4964492;28;20046;-53
2021/12/08 12:12:20;;;;;;;13.63;5.28;;;;;;;5.13;72.39;97297.41;4966538;28;20401;-49
2021/12/08 12:14:48;;;;;;;15.32;6.85;;;;;;;5.14;72.31;97317.91;4965374;28;20050;-51
2021/12/08 12:17:15;;;;;;;15.20;5.97;;;;;;;5.13;71.78;97329.06;4963557;28;20442;-50
2021/12/08 12:19:51;;;;;;;11.02;4.47;;;;;;;5.13;71.89;97328.22;4965841;28;20055;-50
2021/12/08 12:22:31;;;;;;;12.18;5.07;;;;;;;5.13;71.79;97312.81;4963842;28;20053;-50
2021/12/08 12:25:34;;;;;;;11.30;4.82;;;;;;;5.18;71.64;97320.41;4964137;28;20058;-54
2021/12/08 12:28:24;;;;;;;10.27;4.53;;;;;;;5.19;71.41;97322.94;4964786;28;20050;-52
2021/12/08 12:31:31;;;;;;;14.52;5.70;;;;;;;5.23;71.94;97344.22;4962402;28;20707;-52
2021/12/08 12:34:00;;;;;;;7.30;3.70;;;;;;;5.26;71.59;97333.88;4963456;28;20047;-52